Time;durP1;ratioP1;P1;durP2;ratioP2;P2;SDS_P1;SDS_P2;PMS_P1;PMS_P2;Temp;Humidity;BMP_temperature;BMP_pressure;BME280_temperature;BME280_humidity;BME280_pressure;Samples;Min_cycle;Max_cycle;Signal;HPM_P1;HPM_P2
2022/10/05 00:01:51;;;;;;;0.63;0.63;;;20.40;47.90;;;;;;5156114;27;20050;-11
2022/10/05 00:04:22;;;;;;;0.68;0.65;;;20.50;48.00;;;;;;5156746;27;20504;-11
2022/10/05 00:07:01;;;;;;;;;;;20.50;48.00;;;;;;5157075;27;20093;-11
2022/10/05 00:09:30;;;;;;;0.60;0.60;;;20.50;48.00;;;;;;5153204;27;19915;-11
2022/10/05 00:11:56;;;;;;;1.33;1.15;;;20.50;47.90;;;;;;5156016;27;20042;-11
2022/10/05 00:14:28;;;;;;;0.70;0.70;;;20.50;47.90;;;;;;5156562;27;20057;-11
2022/10/05 00:16:54;;;;;;;0.70;0.60;;;20.50;48.00;;;;;;5156239;27;20436;-11
2022/10/05 00:19:35;;;;;;;0.68;0.60;;;20.50;48.00;;;;;;5155700;27;20085;-11
2022/10/05 00:22:12;;;;;;;0.68;0.68;;;20.40;48.00;;;;;;5155768;27;20482;-11
2022/10/05 00:24:37;;;;;;;0.80;0.80;;;20.40;48.00;;;;;;5156080;27;20119;-11
2022/10/05 00:27:24;;;;;;;1.33;0.80;;;20.50;48.00;;;;;;5156003;27;20046;-11
2022/10/05 00:29:51;;;;;;;0.98;0.85;;;20.40;48.00;;;;;;5155699;27;20058;-11
2022/10/05 00:32:17;;;;;;;0.80;0.80;;;20.40;48.50;;;;;;5155528;27;20049;-11
2022/10/05 00:34:44;;;;;;;0.90;0.70;;;20.50;47.90;;;;;;5155706;27;20129;-11
2022/10/05 00:37:10;;;;;;;0.68;0.68;;;20.50;48.00;;;;;;5155654;27;20158;-11
2022/10/05 00:39:38;;;;;;;0.80;0.80;;;20.50;47.90;;;;;;5155467;27;20055;-11
2022/10/05 00:42:22;;;;;;;0.90;0.70;;;20.50;48.00;;;;;;5155784;27;20047;-11
2022/10/05 00:45:07;;;;;;;1.00;0.90;;;20.50;48.00;;;;;;5136876;27;20133;-11
2022/10/05 00:47:45;;;;;;;0.60;0.60;;;20.40;47.90;;;;;;5135305;27;20111;-11
2022/10/05 00:50:33;;;;;;;0.70;0.70;;;20.50;48.00;;;;;;5155593;27;20054;-11
2022/10/05 00:53:10;;;;;;;0.52;0.52;;;20.50;48.00;;;;;;5155362;27;20058;-11
2022/10/05 00:55:56;;;;;;;0.65;0.65;;;20.40;47.90;;;;;;5155648;27;20053;-11
2022/10/05 00:58:36;;;;;;;1.13;0.70;;;20.50;48.00;;;;;;5155487;27;20074;-11
2022/10/05 01:01:10;;;;;;;0.77;0.77;;;20.40;47.90;;;;;;5136572;27;20046;-11
2022/10/05 01:04:04;;;;;;;0.93;0.70;;;20.40;47.90;;;;;;5136871;27;20053;-11
2022/10/05 01:06:52;;;;;;;0.65;0.65;;;20.50;47.90;;;;;;5136414;27;20054;-11
2022/10/05 01:09:26;;;;;;;1.63;0.50;;;20.40;47.90;;;;;;5155294;27;20051;-11
2022/10/05 01:12:21;;;;;;;0.85;0.85;;;20.40;47.90;;;;;;5155378;27;20070;-11
2022/10/05 01:14:55;;;;;;;0.63;0.60;;;20.40;47.90;;;;;;5155007;27;20471;-11
2022/10/05 01:17:31;;;;;;;0.73;0.73;;;20.40;48.00;;;;;;5155041;27;20055;-11
2022/10/05 01:20:13;;;;;;;1.42;0.80;;;20.40;48.00;;;;;;5154702;27;20107;-11
2022/10/05 01:23:20;;;;;;;0.60;0.60;;;20.40;47.90;;;;;;5154833;27;20494;-11
2022/10/05 01:26:10;;;;;;;0.60;0.60;;;20.40;47.90;;;;;;5080378;27;20058;-11
2022/10/05 01:28:51;;;;;;;0.60;0.60;;;20.40;47.90;;;;;;5154123;27;20399;-11
2022/10/05 01:31:32;;;;;;;1.15;0.70;;;20.40;47.90;;;;;;5154411;27;20417;-11
2022/10/05 01:34:05;;;;;;;0.70;0.70;;;20.40;47.90;;;;;;5154592;27;20053;-11
2022/10/05 01:36:52;;;;;;;0.80;0.70;;;20.40;47.90;;;;;;5134929;27;20047;-11
2022/10/05 01:39:33;;;;;;;0.75;0.65;;;20.40;47.90;;;;;;5154850;27;20469;-11
2022/10/05 01:42:19;;;;;;;0.60;0.60;;;20.40;47.90;;;;;;5155007;27;20050;-11
2022/10/05 01:45:08;;;;;;;1.17;0.77;;;20.40;47.90;;;;;;5154894;27;20798;-11
2022/10/05 01:47:40;;;;;;;0.65;0.65;;;20.50;48.00;;;;;;5121252;27;20058;-11
2022/10/05 01:50:10;;;;;;;0.60;0.60;;;20.40;47.90;;;;;;5154736;27;20063;-11
2022/10/05 01:53:02;;;;;;;0.85;0.85;;;20.40;47.90;;;;;;5154493;27;20156;-11
2022/10/05 01:55:55;;;;;;;0.73;0.73;;;20.40;47.90;;;;;;5154365;27;20050;-11
2022/10/05 01:58:41;;;;;;;0.63;0.63;;;20.40;47.90;;;;;;5154148;27;20039;-11
2022/10/05 02:01:30;;;;;;;0.73;0.60;;;20.40;47.90;;;;;;5154629;27;20054;-11
2022/10/05 02:04:12;;;;;;;0.70;0.70;;;20.40;47.90;;;;;;5135872;27;20061;-11
2022/10/05 02:06:44;;;;;;;0.75;0.70;;;20.40;47.90;;;;;;5135450;27;20099;-11
2022/10/05 02:09:13;;;;;;;;;;;20.40;47.90;;;;;;5154519;27;20058;-11
2022/10/05 02:11:47;;;;;;;0.52;0.52;;;20.40;47.90;;;;;;5154206;27;19915;-11
2022/10/05 02:14:22;;;;;;;0.75;0.75;;;20.40;47.90;;;;;;5154480;27;20051;-11
2022/10/05 02:16:52;;;;;;;0.63;0.63;;;20.40;47.80;;;;;;5135574;27;20100;-11
2022/10/05 02:19:36;;;;;;;0.73;0.70;;;20.40;47.90;;;;;;5153674;27;20055;-11
2022/10/05 02:22:09;;;;;;;0.60;0.60;;;20.50;47.90;;;;;;5133756;27;20097;-11
2022/10/05 02:24:47;;;;;;;0.60;0.60;;;20.40;47.90;;;;;;5136016;27;20050;-11
2022/10/05 02:27:18;;;;;;;0.70;0.70;;;20.40;47.80;;;;;;5135251;27;20059;-13
2022/10/05 02:29:47;;;;;;;1.10;1.00;;;20.40;47.90;;;;;;5135556;27;20051;-11
2022/10/05 02:32:22;;;;;;;0.60;0.60;;;20.40;47.90;;;;;;5135598;27;20051;-11
2022/10/05 02:34:48;;;;;;;0.88;0.82;;;20.40;47.80;;;;;;5131333;27;20054;-11
2022/10/05 02:37:54;;;;;;;0.80;0.60;;;20.40;47.90;;;;;;5133287;27;20145;-11
2022/10/05 02:40:45;;;;;;;0.80;0.80;;;20.40;47.80;;;;;;5134570;27;20046;-11
2022/10/05 02:43:18;;;;;;;0.65;0.65;;;20.50;47.80;;;;;;5138699;27;20098;-11
2022/10/05 02:46:01;;;;;;;0.60;0.60;;;20.50;47.70;;;;;;5139104;27;20046;-11
2022/10/05 02:48:49;;;;;;;0.60;0.60;;;20.40;47.70;;;;;;5138918;27;20047;-11
2022/10/05 02:51:52;;;;;;;0.52;0.52;;;20.40;47.80;;;;;;5138302;27;20061;-11
2022/10/05 02:54:57;;;;;;;0.80;0.80;;;20.40;47.80;;;;;;5103709;27;20057;-11
2022/10/05 02:57:42;;;;;;;0.98;0.80;;;20.40;47.80;;;;;;5138467;27;20047;-11
2022/10/05 03:00:23;;;;;;;0.63;0.63;;;20.40;47.70;;;;;;5157520;27;20049;-11
2022/10/05 03:03:04;;;;;;;0.65;0.65;;;20.40;47.80;;;;;;5138817;27;20470;-11
2022/10/05 03:05:56;;;;;;;0.88;0.80;;;20.40;47.80;;;;;;5138569;27;20180;-11
2022/10/05 03:08:35;;;;;;;0.98;0.73;;;20.40;47.80;;;;;;5138682;27;20054;-11
2022/10/05 03:11:14;;;;;;;0.80;0.80;;;20.40;47.80;;;;;;5138610;27;20390;-11
2022/10/05 03:13:48;;;;;;;0.90;0.73;;;20.50;47.80;;;;;;5136402;27;20170;-11
2022/10/05 03:16:29;;;;;;;0.63;0.63;;;20.50;47.70;;;;;;5137040;27;20054;-11
2022/10/05 03:19:20;;;;;;;0.60;0.60;;;20.50;47.60;;;;;;5157018;27;20054;-11
2022/10/05 03:22:08;;;;;;;;;;;20.60;47.60;;;;;;5157133;27;20458;-11
2022/10/05 03:24:46;;;;;;;1.35;0.80;;;20.60;47.50;;;;;;5138604;27;19926;-11
2022/10/05 03:27:40;;;;;;;0.70;0.70;;;20.60;47.50;;;;;;5138405;27;20398;-11
2022/10/05 03:30:20;;;;;;;1.15;0.90;;;20.60;47.40;;;;;;5156717;27;20421;-11
2022/10/05 03:33:06;;;;;;;0.60;0.60;;;20.60;47.40;;;;;;5138152;27;20501;-10
2022/10/05 03:35:41;;;;;;;0.80;0.80;;;20.60;47.30;;;;;;5138492;27;20055;-11
2022/10/05 03:38:16;;;;;;;0.70;0.70;;;20.70;47.30;;;;;;5137959;27;20493;-11
2022/10/05 03:40:58;;;;;;;1.17;1.00;;;20.70;47.20;;;;;;5137888;27;20046;-11
2022/10/05 03:43:43;;;;;;;0.60;0.60;;;20.70;47.20;;;;;;5137824;27;20061;-11
2022/10/05 03:46:21;;;;;;;0.93;0.80;;;20.70;47.20;;;;;;5138376;27;20131;-11
2022/10/05 03:49:18;;;;;;;0.63;0.63;;;20.80;47.20;;;;;;5135790;27;20134;-11
2022/10/05 03:51:53;;;;;;;0.60;0.60;;;20.80;47.10;;;;;;5137800;27;20054;-11
2022/10/05 03:54:25;;;;;;;0.65;0.65;;;20.80;47.00;;;;;;5137780;27;20050;-11
2022/10/05 03:56:56;;;;;;;0.88;0.88;;;20.80;47.00;;;;;;5137773;27;20538;-11
2022/10/05 03:59:33;;;;;;;;;;;20.80;47.00;;;;;;5136353;27;20047;-11
2022/10/05 04:02:05;;;;;;;0.70;0.70;;;20.80;47.00;;;;;;5137542;27;20008;-11
2022/10/05 04:05:01;;;;;;;0.67;0.67;;;20.90;47.00;;;;;;5138150;27;20118;-11
2022/10/05 04:07:46;;;;;;;0.60;0.60;;;20.90;47.00;;;;;;5122845;27;20535;-11
2022/10/05 04:10:25;;;;;;;0.50;0.50;;;20.90;46.90;;;;;;5137106;27;20135;-11
2022/10/05 04:13:00;;;;;;;0.70;0.70;;;20.90;46.90;;;;;;5135904;27;20055;-11
2022/10/05 04:15:35;;;;;;;0.80;0.80;;;20.90;46.80;;;;;;5137234;27;20498;-11
2022/10/05 04:18:31;;;;;;;0.80;0.80;;;20.90;46.80;;;;;;5137431;27;20058;-11
2022/10/05 04:21:05;;;;;;;0.73;0.73;;;20.90;46.80;;;;;;5137194;27;20447;-11
2022/10/05 04:23:56;;;;;;;0.63;0.63;;;20.90;46.80;;;;;;5155791;27;20046;-11
2022/10/05 04:26:45;;;;;;;;;;;20.90;46.80;;;;;;5156056;27;20050;-11
2022/10/05 04:29:36;;;;;;;0.73;0.60;;;20.90;46.80;;;;;;5123242;27;19915;-11
2022/10/05 04:32:23;;;;;;;1.17;0.80;;;20.90;46.80;;;;;;5137582;27;20082;-11
2022/10/05 04:35:21;;;;;;;0.70;0.70;;;20.90;46.90;;;;;;5155919;27;20050;-11
2022/10/05 04:38:25;;;;;;;0.90;0.75;;;20.90;46.90;;;;;;5136487;27;20122;-11
2022/10/05 04:41:04;;;;;;;0.68;0.68;;;20.80;47.00;;;;;;5137314;27;20047;-11
2022/10/05 04:43:58;;;;;;;0.75;0.65;;;20.80;47.00;;;;;;5137018;27;20133;-11
2022/10/05 04:46:43;;;;;;;0.60;0.60;;;20.80;47.00;;;;;;5134762;27;20129;-11
2022/10/05 04:49:31;;;;;;;0.60;0.60;;;20.80;47.00;;;;;;5136856;27;20053;-11
2022/10/05 04:52:07;;;;;;;0.75;0.70;;;20.80;47.00;;;;;;5137284;27;20050;-11
2022/10/05 04:54:42;;;;;;;1.05;0.82;;;20.80;47.00;;;;;;5136649;27;20460;-11
2022/10/05 04:57:48;;;;;;;0.65;0.65;;;20.80;47.00;;;;;;5136631;27;20056;-11
2022/10/05 05:00:49;;;;;;;0.50;0.50;;;20.80;47.00;;;;;;5134995;27;20043;-11
2022/10/05 05:03:34;;;;;;;0.70;0.60;;;20.80;47.00;;;;;;5134262;27;20043;-11
2022/10/05 05:06:18;;;;;;;0.77;0.75;;;20.80;47.00;;;;;;5155172;27;20588;-11
2022/10/05 05:09:25;;;;;;;0.60;0.60;;;20.80;47.00;;;;;;5135016;27;20047;-11
2022/10/05 05:12:01;;;;;;;0.60;0.60;;;20.80;47.00;;;;;;5136227;27;20149;-11
2022/10/05 05:14:49;;;;;;;0.70;0.70;;;20.80;47.00;;;;;;5154904;27;20042;-11
2022/10/05 05:18:02;;;;;;;0.68;0.60;;;20.80;47.00;;;;;;5154471;27;20093;-11
2022/10/05 05:21:07;;;;;;;0.68;0.68;;;20.80;47.00;;;;;;5136180;27;20142;-11
2022/10/05 05:23:58;;;;;;;0.73;0.70;;;20.80;47.00;;;;;;5135392;27;20045;-11
2022/10/05 05:26:52;;;;;;;1.02;0.70;;;20.80;47.00;;;;;;5136718;27;20058;-11
2022/10/05 05:30:00;;;;;;;0.68;0.60;;;20.80;47.00;;;;;;5136010;27;20108;-11
2022/10/05 05:32:56;;;;;;;0.60;0.60;;;20.80;47.00;;;;;;5136488;27;20058;-11
2022/10/05 05:35:45;;;;;;;0.70;0.70;;;20.80;47.00;;;;;;5154847;27;20042;-11
2022/10/05 05:38:29;;;;;;;0.60;0.60;;;20.80;47.00;;;;;;5154447;27;20080;-11
2022/10/05 05:41:25;;;;;;;0.60;0.60;;;20.80;47.00;;;;;;5136487;27;20102;-11
2022/10/05 05:44:18;;;;;;;0.70;0.70;;;20.80;47.00;;;;;;5154234;27;20490;-11
2022/10/05 05:46:54;;;;;;;0.70;0.70;;;20.80;47.00;;;;;;5136038;27;20439;-11
2022/10/05 05:49:28;;;;;;;0.70;0.70;;;20.80;47.00;;;;;;5154501;27;20130;-11
2022/10/05 05:52:03;;;;;;;0.50;0.50;;;20.80;47.00;;;;;;5135676;27;20049;-11
2022/10/05 05:54:51;;;;;;;0.85;0.70;;;20.80;47.00;;;;;;5136226;27;20141;-11
2022/10/05 05:57:29;;;;;;;0.75;0.65;;;20.80;47.00;;;;;;5135389;27;20473;-11
2022/10/05 06:00:13;;;;;;;1.08;0.80;;;20.80;47.00;;;;;;5151528;27;20111;-11
2022/10/05 06:02:54;;;;;;;0.70;0.70;;;20.80;47.00;;;;;;5135413;27;20091;-11
2022/10/05 06:05:34;;;;;;;0.90;0.70;;;20.80;47.00;;;;;;5135618;27;20542;-12
2022/10/05 06:08:12;;;;;;;0.70;0.70;;;20.80;47.50;;;;;;5135142;27;20557;-11
2022/10/05 06:10:51;;;;;;;0.70;0.70;;;20.80;47.00;;;;;;5135392;27;20050;-11
2022/10/05 06:13:29;;;;;;;0.80;0.70;;;20.80;47.00;;;;;;5153674;27;20038;-11
2022/10/05 06:16:08;;;;;;;0.63;0.63;;;20.80;47.50;;;;;;5156911;27;20486;-11
2022/10/05 06:18:38;;;;;;;0.52;0.52;;;20.80;46.90;;;;;;5157491;27;20435;-11
2022/10/05 06:21:25;;;;;;;0.60;0.60;;;20.80;46.90;;;;;;5157421;27;20065;-11
2022/10/05 06:24:00;;;;;;;0.73;0.73;;;20.80;46.90;;;;;;5138184;27;20050;-11
2022/10/05 06:26:50;;;;;;;0.68;0.68;;;20.80;46.90;;;;;;5138756;27;20101;-11
2022/10/05 06:29:22;;;;;;;0.70;0.70;;;20.90;46.90;;;;;;5138532;27;20078;-11
2022/10/05 06:32:04;;;;;;;0.90;0.70;;;20.90;46.80;;;;;;5137926;27;20145;-11
2022/10/05 06:35:01;;;;;;;0.63;0.63;;;20.90;46.80;;;;;;5138661;27;20043;-11
2022/10/05 06:37:32;;;;;;;0.68;0.68;;;20.90;46.80;;;;;;5104901;27;20042;-11
2022/10/05 06:40:04;;;;;;;0.70;0.70;;;20.90;46.80;;;;;;5136803;27;20047;-11
2022/10/05 06:42:48;;;;;;;0.60;0.60;;;20.90;46.80;;;;;;5138457;27;20134;-11
2022/10/05 06:46:12;;;;;;;0.55;0.55;;;20.90;46.80;;;;;;5153844;27;20061;-11
2022/10/05 06:48:59;;;;;;;0.57;0.57;;;20.90;46.70;;;;;;5137079;27;20095;-11
2022/10/05 06:52:08;;;;;;;0.80;0.80;;;20.90;46.70;;;;;;5138349;27;20039;-11
2022/10/05 06:54:49;;;;;;;0.60;0.60;;;20.90;46.70;;;;;;5138604;27;20151;-11
2022/10/05 06:57:44;;;;;;;0.55;0.55;;;20.90;47.20;;;;;;5136654;27;20479;-11
2022/10/05 07:00:21;;;;;;;0.70;0.70;;;20.90;46.70;;;;;;5138039;27;20512;-11
2022/10/05 07:03:20;;;;;;;0.80;0.80;;;20.90;46.60;;;;;;5138513;27;20043;-11
2022/10/05 07:06:02;;;;;;;0.73;0.73;;;20.90;46.60;;;;;;5156523;27;20106;-11
2022/10/05 07:08:41;;;;;;;0.88;0.80;;;21.00;46.60;;;;;;5137998;27;20043;-11
2022/10/05 07:11:51;;;;;;;0.70;0.70;;;20.90;46.60;;;;;;5156986;27;20153;-11
2022/10/05 07:14:29;;;;;;;0.70;0.70;;;21.00;46.70;;;;;;5090391;27;20047;-11
2022/10/05 07:17:15;;;;;;;0.70;0.70;;;21.00;46.60;;;;;;5137817;27;20050;-11
2022/10/05 07:20:12;;;;;;;0.63;0.63;;;21.00;46.60;;;;;;5137830;27;20038;-11
2022/10/05 07:23:12;;;;;;;0.60;0.60;;;21.00;46.60;;;;;;5137703;27;20406;-11
2022/10/05 07:25:50;;;;;;;0.90;0.77;;;21.00;46.60;;;;;;5137603;27;20054;-11
2022/10/05 07:28:32;;;;;;;1.15;0.90;;;21.00;46.60;;;;;;5135835;27;20043;-12
2022/10/05 07:31:06;;;;;;;0.70;0.70;;;21.00;46.60;;;;;;5137396;27;20520;-11
2022/10/05 07:33:53;;;;;;;0.77;0.70;;;21.00;46.50;;;;;;5138108;27;20141;-12
2022/10/05 07:39:36;;;;;;;1.05;0.82;;;21.00;46.50;;;;;;5156469;27;20478;-11
2022/10/05 07:42:37;;;;;;;0.73;0.73;;;21.00;46.50;;;;;;5151976;27;20478;-11
2022/10/05 07:45:23;;;;;;;;;;;21.00;46.50;;;;;;5137554;27;20055;-11
2022/10/05 07:47:55;;;;;;;1.05;0.80;;;21.00;46.50;;;;;;5134761;27;19922;-11
2022/10/05 07:50:33;;;;;;;0.68;0.68;;;21.00;46.40;;;;;;5137607;27;20055;-11
2022/10/05 07:53:09;;;;;;;1.23;0.80;;;21.00;46.40;;;;;;5155972;27;20058;-11
2022/10/05 07:55:41;;;;;;;0.90;0.80;;;21.00;46.40;;;;;;5156171;27;20068;-12
2022/10/05 07:58:23;;;;;;;0.70;0.70;;;21.00;46.50;;;;;;5137030;27;20103;-11
2022/10/05 08:01:11;;;;;;;0.70;0.70;;;21.00;46.50;;;;;;5136793;27;20205;-11
2022/10/05 08:03:57;;;;;;;0.73;0.73;;;21.00;46.50;;;;;;5135621;27;20471;-11
2022/10/05 08:06:45;;;;;;;0.75;0.75;;;21.00;46.50;;;;;;5155506;27;20047;-11
2022/10/05 08:09:36;;;;;;;0.70;0.70;;;21.00;46.50;;;;;;5155777;27;20141;-11
2022/10/05 08:12:10;;;;;;;0.80;0.70;;;21.00;46.50;;;;;;5155947;27;20066;-11
2022/10/05 08:14:54;;;;;;;1.42;0.93;;;21.00;46.50;;;;;;5155850;27;20140;-11
2022/10/05 08:17:44;;;;;;;0.60;0.60;;;21.00;46.50;;;;;;5155229;27;20479;-11
2022/10/05 08:20:38;;;;;;;0.60;0.50;;;21.00;46.50;;;;;;5155644;27;20050;-11
2022/10/05 08:23:12;;;;;;;0.70;0.70;;;21.00;46.40;;;;;;5155465;27;20053;-12
2022/10/05 08:26:03;;;;;;;0.60;0.60;;;21.00;46.40;;;;;;5156020;27;20133;-11
2022/10/05 08:28:56;;;;;;;0.55;0.55;;;21.10;46.40;;;;;;5155479;27;20038;-11
2022/10/05 08:31:26;;;;;;;0.80;0.80;;;21.10;46.40;;;;;;5154579;27;20119;-11
2022/10/05 08:34:04;;;;;;;1.30;0.80;;;21.10;46.30;;;;;;5155192;27;20047;-12
2022/10/05 08:36:58;;;;;;;0.85;0.77;;;21.10;46.30;;;;;;5155157;27;20051;-12
2022/10/05 08:39:29;;;;;;;0.63;0.63;;;21.10;46.20;;;;;;5135061;27;20046;-11
2022/10/05 08:42:08;;;;;;;;;;;21.10;46.20;;;;;;5155806;27;20066;-11
2022/10/05 08:45:12;;;;;;;0.65;0.60;;;21.10;46.20;;;;;;5155480;27;19915;-11
2022/10/05 08:47:49;;;;;;;0.68;0.68;;;21.20;46.20;;;;;;5155243;27;20123;-12
2022/10/05 08:50:51;;;;;;;0.73;0.50;;;21.20;46.20;;;;;;5155091;27;20529;-10
2022/10/05 08:53:19;;;;;;;0.68;0.68;;;21.20;46.20;;;;;;5154375;27;20134;-10
2022/10/05 08:56:11;;;;;;;0.70;0.65;;;21.20;46.20;;;;;;5154821;27;20129;-10
2022/10/05 08:58:54;;;;;;;0.70;0.70;;;21.20;46.20;;;;;;5133180;27;20078;-10
2022/10/05 09:01:33;;;;;;;0.80;0.80;;;21.20;46.20;;;;;;5154909;27;20046;-10
2022/10/05 09:04:14;;;;;;;1.13;0.80;;;21.20;46.10;;;;;;5155313;27;20070;-12
2022/10/05 09:07:16;;;;;;;0.68;0.68;;;21.20;46.20;;;;;;5154404;27;20063;-11
2022/10/05 09:09:44;;;;;;;;;;;21.10;46.20;;;;;;5153212;27;20133;-14
2022/10/05 09:12:45;;;;;;;0.90;0.90;;;21.10;46.30;;;;;;5152265;27;20059;-13
2022/10/05 09:16:04;;;;;;;0.82;0.82;;;21.20;46.20;;;;;;5152587;27;20054;-13
2022/10/05 09:18:55;;;;;;;0.80;0.80;;;21.20;46.20;;;;;;5049425;28;20063;-13
2022/10/05 09:21:43;;;;;;;;;;;21.20;46.10;;;;;;5151646;27;20097;-12
2022/10/05 09:24:11;;;;;;;0.85;0.80;;;21.20;46.00;;;;;;5154071;27;19983;-15
2022/10/05 09:26:58;;;;;;;0.85;0.82;;;21.20;46.10;;;;;;5154530;27;20043;-11
2022/10/05 09:29:42;;;;;;;1.13;0.70;;;21.30;46.20;;;;;;5154340;27;20099;-12
2022/10/05 09:32:11;;;;;;;1.55;0.73;;;21.20;46.10;;;;;;5135552;27;20039;-12
2022/10/05 09:35:19;;;;;;;1.75;0.80;;;21.30;46.10;;;;;;5154336;27;20497;-11
2022/10/05 09:38:13;;;;;;;0.70;0.70;;;21.30;46.10;;;;;;5136457;27;20054;-11
2022/10/05 09:41:17;;;;;;;0.90;0.80;;;21.30;46.10;;;;;;5154063;27;20405;-12
2022/10/05 09:44:02;;;;;;;1.10;1.00;;;21.30;46.10;;;;;;5154177;27;20367;-11
2022/10/05 09:47:10;;;;;;;0.80;0.80;;;21.30;46.00;;;;;;5154391;27;20046;-11
2022/10/05 09:50:13;;;;;;;1.05;0.95;;;21.30;46.00;;;;;;5153760;27;20050;-11
2022/10/05 09:53:04;;;;;;;0.80;0.80;;;21.30;46.00;;;;;;5154155;27;20073;-11
2022/10/05 09:55:44;;;;;;;0.93;0.80;;;21.30;46.00;;;;;;5154029;27;20046;-11
2022/10/05 09:58:28;;;;;;;3.17;1.20;;;21.30;46.00;;;;;;5153991;27;20340;-12
2022/10/05 10:01:24;;;;;;;0.95;0.88;;;21.30;46.00;;;;;;5154007;27;20172;-12
2022/10/05 10:04:06;;;;;;;0.70;0.70;;;21.30;46.10;;;;;;5153662;27;20065;-11
2022/10/05 10:06:47;;;;;;;1.42;0.77;;;21.30;46.10;;;;;;5153770;27;20074;-10
2022/10/05 10:09:46;;;;;;;0.90;0.90;;;21.30;46.10;;;;;;5153830;27;20528;-11
2022/10/05 10:12:11;;;;;;;0.73;0.73;;;21.30;46.10;;;;;;5104767;27;20042;-11
2022/10/05 10:15:08;;;;;;;0.90;0.80;;;21.20;46.10;;;;;;5153077;27;20049;-11
2022/10/05 10:18:00;;;;;;;1.10;1.00;;;21.20;46.00;;;;;;5151237;27;20159;-13
2022/10/05 10:20:45;;;;;;;0.90;0.88;;;21.30;46.10;;;;;;5151862;27;20043;-11
2022/10/05 10:23:53;;;;;;;0.98;0.90;;;21.20;46.00;;;;;;5152562;27;20050;-12
2022/10/05 10:26:47;;;;;;;0.77;0.77;;;21.30;46.10;;;;;;5152334;27;20444;-13
2022/10/05 10:29:31;;;;;;;0.88;0.88;;;21.20;46.10;;;;;;5153010;27;20095;-13
2022/10/05 10:32:17;;;;;;;0.70;0.70;;;21.30;46.10;;;;;;5153162;27;20055;-12
2022/10/05 10:35:17;;;;;;;1.08;0.98;;;21.20;46.00;;;;;;5153462;27;20050;-10
2022/10/05 10:38:22;;;;;;;0.73;0.73;;;21.30;46.10;;;;;;5154147;27;20183;-10
2022/10/05 10:41:00;;;;;;;0.90;0.90;;;21.20;46.00;;;;;;5135018;27;20402;-10
2022/10/05 10:43:44;;;;;;;0.90;0.90;;;21.20;46.00;;;;;;5153432;27;20051;-12
2022/10/05 10:46:44;;;;;;;0.88;0.77;;;21.20;46.00;;;;;;5153896;27;20108;-12
2022/10/05 10:49:29;;;;;;;0.80;0.80;;;21.20;46.10;;;;;;5134552;27;20046;-10
2022/10/05 10:52:35;;;;;;;1.45;1.20;;;21.20;46.10;;;;;;5153594;27;20099;-11
2022/10/05 10:55:45;;;;;;;1.20;0.85;;;21.20;46.10;;;;;;5149664;27;20406;-12
2022/10/05 10:58:30;;;;;;;0.80;0.80;;;21.20;46.10;;;;;;5153697;27;20051;-12
2022/10/05 11:01:35;;;;;;;1.25;1.08;;;21.20;46.10;;;;;;5153404;27;20139;-12
2022/10/05 11:04:22;;;;;;;0.95;0.95;;;21.20;46.10;;;;;;5052642;28;20090;-12
2022/10/05 11:07:19;;;;;;;1.17;1.02;;;21.20;46.10;;;;;;5154037;27;20053;-12
2022/10/05 11:10:25;;;;;;;0.90;0.90;;;21.30;46.30;;;;;;5156605;27;20535;-12
2022/10/05 11:13:10;;;;;;;1.25;1.15;;;21.20;46.30;;;;;;5156931;27;20050;-12
2022/10/05 11:15:48;;;;;;;1.15;1.05;;;21.20;46.40;;;;;;5156898;27;20390;-11
2022/10/05 11:18:37;;;;;;;1.15;1.05;;;21.20;46.40;;;;;;5156817;27;20081;-11
2022/10/05 11:21:18;;;;;;;1.33;1.15;;;21.20;46.30;;;;;;5156526;27;20158;-11
2022/10/05 11:24:07;;;;;;;1.83;1.10;;;21.20;46.30;;;;;;5156584;27;20447;-11
2022/10/05 11:26:44;;;;;;;1.10;1.00;;;21.20;46.30;;;;;;5156492;27;20046;-11
2022/10/05 11:29:29;;;;;;;0.80;0.80;;;21.30;46.30;;;;;;5156951;27;20054;-11
2022/10/05 11:32:16;;;;;;;1.38;0.93;;;21.20;46.30;;;;;;5156224;27;20129;-11
2022/10/05 11:35:17;;;;;;;4.32;1.10;;;21.20;46.20;;;;;;5156262;27;20078;-11
2022/10/05 11:38:17;;;;;;;0.90;0.90;;;21.20;46.20;;;;;;5156252;27;20046;-12
2022/10/05 11:41:17;;;;;;;1.00;0.90;;;21.30;46.30;;;;;;5156860;27;20042;-11
2022/10/05 11:44:07;;;;;;;1.10;1.00;;;21.30;46.30;;;;;;5156103;27;20550;-11
2022/10/05 11:46:40;;;;;;;0.95;0.90;;;21.20;46.20;;;;;;5156308;27;20070;-11
2022/10/05 11:49:25;;;;;;;1.45;1.00;;;21.30;46.20;;;;;;5156122;27;20046;-12
2022/10/05 11:52:05;;;;;;;0.90;0.77;;;21.30;46.20;;;;;;5155652;27;20058;-12
2022/10/05 11:54:39;;;;;;;1.30;1.20;;;21.30;46.20;;;;;;5156167;27;20559;-12
2022/10/05 11:57:12;;;;;;;0.85;0.80;;;21.30;46.30;;;;;;5154173;27;20051;-12
2022/10/05 11:59:50;;;;;;;1.20;0.90;;;21.30;46.30;;;;;;5155840;27;20042;-11
2022/10/05 12:02:26;;;;;;;1.30;1.10;;;21.30;46.20;;;;;;5155562;27;20085;-11
2022/10/05 12:05:10;;;;;;;0.80;0.80;;;21.30;46.30;;;;;;5156206;27;20043;-11
2022/10/05 12:07:51;;;;;;;0.80;0.80;;;21.30;46.20;;;;;;5155801;27;20486;-11
2022/10/05 12:10:31;;;;;;;;;;;21.30;46.20;;;;;;5156143;27;20051;-11
2022/10/05 12:13:12;;;;;;;0.93;0.90;;;21.30;46.20;;;;;;5154522;27;20021;-12
2022/10/05 12:15:38;;;;;;;1.00;0.98;;;21.30;46.20;;;;;;5153181;27;20525;-14
2022/10/05 12:18:40;;;;;;;1.13;0.98;;;21.30;46.20;;;;;;5153503;27;20110;-12
2022/10/05 12:21:27;;;;;;;2.22;1.05;;;21.30;46.10;;;;;;5154371;27;20046;-12
2022/10/05 12:24:08;;;;;;;1.00;1.00;;;21.40;46.10;;;;;;5154575;27;20055;-12
2022/10/05 12:26:36;;;;;;;1.00;0.80;;;21.40;46.10;;;;;;5155163;27;20054;-12
2022/10/05 12:29:06;;;;;;;1.20;1.10;;;21.30;46.10;;;;;;5154940;27;20046;-12
2022/10/05 12:31:56;;;;;;;1.15;1.05;;;21.30;46.00;;;;;;5155226;27;20046;-11
2022/10/05 12:34:53;;;;;;;0.80;0.80;;;21.30;46.10;;;;;;5155668;27;20225;-12
2022/10/05 12:37:50;;;;;;;1.15;1.05;;;21.40;46.10;;;;;;5139695;27;20046;-11
2022/10/05 12:40:51;;;;;;;1.40;1.10;;;21.40;46.00;;;;;;5155197;27;20057;-11
2022/10/05 12:43:30;;;;;;;1.45;1.10;;;21.40;46.00;;;;;;5150584;27;20129;-10
2022/10/05 12:46:10;;;;;;;1.55;1.10;;;21.30;46.00;;;;;;5155454;27;20057;-10
2022/10/05 12:48:55;;;;;;;1.10;1.00;;;21.40;46.10;;;;;;5155477;27;20554;-10
2022/10/05 12:51:54;;;;;;;1.33;1.02;;;21.40;46.00;;;;;;5155336;27;20427;-10
2022/10/05 12:54:48;;;;;;;1.10;0.95;;;21.40;46.00;;;;;;5154555;27;20050;-11
2022/10/05 12:57:52;;;;;;;1.20;1.10;;;21.40;46.00;;;;;;5155063;27;20047;-10
2022/10/05 13:00:19;;;;;;;1.10;1.00;;;21.40;46.00;;;;;;5154842;27;20051;-10
2022/10/05 13:02:46;;;;;;;1.23;1.10;;;21.40;46.00;;;;;;5155405;27;20053;-10
2022/10/05 13:05:34;;;;;;;1.40;1.30;;;21.40;45.90;;;;;;5154699;27;20062;-10
2022/10/05 13:08:09;;;;;;;1.20;1.10;;;21.40;46.00;;;;;;5154792;27;20409;-10
2022/10/05 13:10:47;;;;;;;0.90;0.90;;;21.40;46.00;;;;;;5154683;27;20053;-10
2022/10/05 13:13:33;;;;;;;0.90;0.90;;;21.40;46.00;;;;;;5154662;27;20057;-10
2022/10/05 13:16:13;;;;;;;0.88;0.88;;;21.40;45.90;;;;;;5154411;27;20057;-10
2022/10/05 13:18:49;;;;;;;1.10;1.10;;;21.40;45.90;;;;;;5154612;27;20057;-11
2022/10/05 13:21:28;;;;;;;1.20;1.10;;;21.40;45.90;;;;;;5154813;27;20472;-11
2022/10/05 13:24:25;;;;;;;1.50;1.17;;;21.40;46.00;;;;;;5153725;27;20060;-11
2022/10/05 13:27:20;;;;;;;1.45;1.10;;;21.40;45.90;;;;;;5154923;27;20147;-11
2022/10/05 13:30:19;;;;;;;1.05;0.90;;;21.40;46.00;;;;;;5154153;27;20054;-11
2022/10/05 13:33:05;;;;;;;1.02;1.00;;;21.40;46.00;;;;;;5097810;27;20047;-11
2022/10/05 13:35:49;;;;;;;1.08;0.95;;;21.40;46.00;;;;;;5154400;27;20074;-11
2022/10/05 13:38:24;;;;;;;1.10;1.00;;;21.40;46.00;;;;;;5154341;27;20050;-11
2022/10/05 13:40:52;;;;;;;1.55;0.95;;;21.40;46.00;;;;;;5154354;27;20046;-11
2022/10/05 13:43:37;;;;;;;1.48;1.13;;;21.40;46.10;;;;;;5153956;27;20046;-11
2022/10/05 13:46:18;;;;;;;1.08;0.98;;;21.40;46.00;;;;;;5154033;27;20091;-12
2022/10/05 13:49:05;;;;;;;1.00;0.85;;;21.40;46.00;;;;;;5154624;27;20047;-11
2022/10/05 13:51:51;;;;;;;1.10;0.98;;;21.40;46.00;;;;;;5153912;27;20137;-12
2022/10/05 13:54:26;;;;;;;0.90;0.90;;;21.40;46.00;;;;;;5152435;27;20090;-12
2022/10/05 13:57:13;;;;;;;1.27;1.10;;;21.40;46.10;;;;;;5153674;27;20145;-12
2022/10/05 13:59:59;;;;;;;1.08;1.00;;;21.30;46.00;;;;;;5154019;27;20047;-11
2022/10/05 14:02:38;;;;;;;1.52;1.20;;;21.40;46.00;;;;;;5152029;27;20050;-13
2022/10/05 14:05:19;;;;;;;1.10;1.00;;;21.40;46.10;;;;;;5151818;27;20122;-12
2022/10/05 14:07:54;;;;;;;1.77;1.20;;;21.40;46.10;;;;;;5153082;27;20077;-12
2022/10/05 14:10:41;;;;;;;1.27;1.17;;;21.40;46.20;;;;;;5152291;27;20055;-11
2022/10/05 14:13:25;;;;;;;1.55;1.30;;;21.30;46.20;;;;;;5154256;27;20082;-12
2022/10/05 14:15:58;;;;;;;1.48;1.20;;;21.40;46.20;;;;;;5152510;27;20090;-12
2022/10/05 14:18:27;;;;;;;1.02;1.00;;;21.40;46.20;;;;;;5151582;27;20051;-13
2022/10/05 14:21:21;;;;;;;1.50;1.23;;;21.30;46.10;;;;;;5153198;27;20410;-11
2022/10/05 14:23:48;;;;;;;1.13;0.90;;;21.30;46.20;;;;;;5149508;27;20410;-13